sensor_id;sensor_type;location;lat;lon;timestamp;temperature;humidity
35700;DHT22;21818;51.078;12.108;2023-06-19T00:02:14;20.80;80.40
35700;DHT22;21818;51.078;12.108;2023-06-19T00:04:40;20.80;80.60
35700;DHT22;21818;51.078;12.108;2023-06-19T00:07:05;20.60;80.90
35700;DHT22;21818;51.078;12.108;2023-06-19T00:09:32;20.50;81.30
35700;DHT22;21818;51.078;12.108;2023-06-19T00:11:58;20.50;81.30
35700;DHT22;21818;51.078;12.108;2023-06-19T00:14:25;20.50;81.30
35700;DHT22;21818;51.078;12.108;2023-06-19T00:16:51;20.50;81.70
35700;DHT22;21818;51.078;12.108;2023-06-19T00:19:17;20.50;81.30
35700;DHT22;21818;51.078;12.108;2023-06-19T00:21:43;20.50;81.50
35700;DHT22;21818;51.078;12.108;2023-06-19T00:24:09;20.50;81.80
35700;DHT22;21818;51.078;12.108;2023-06-19T00:26:35;20.40;82.00
35700;DHT22;21818;51.078;12.108;2023-06-19T00:29:01;20.40;81.90
35700;DHT22;21818;51.078;12.108;2023-06-19T00:31:26;20.40;81.70
35700;DHT22;21818;51.078;12.108;2023-06-19T00:33:53;20.40;81.70
35700;DHT22;21818;51.078;12.108;2023-06-19T00:36:19;20.30;82.30
35700;DHT22;21818;51.078;12.108;2023-06-19T00:38:51;20.30;81.70
35700;DHT22;21818;51.078;12.108;2023-06-19T00:41:16;20.40;81.80
35700;DHT22;21818;51.078;12.108;2023-06-19T00:43:42;20.30;82.10
35700;DHT22;21818;51.078;12.108;2023-06-19T00:46:08;20.30;82.10
35700;DHT22;21818;51.078;12.108;2023-06-19T00:48:35;20.30;81.80
35700;DHT22;21818;51.078;12.108;2023-06-19T00:51:00;20.40;81.60
35700;DHT22;21818;51.078;12.108;2023-06-19T00:53:26;20.40;81.40
35700;DHT22;21818;51.078;12.108;2023-06-19T00:55:53;20.50;81.30
35700;DHT22;21818;51.078;12.108;2023-06-19T00:58:20;20.50;81.40
35700;DHT22;21818;51.078;12.108;2023-06-19T01:00:47;20.50;81.30
35700;DHT22;21818;51.078;12.108;2023-06-19T01:03:13;20.40;81.00
35700;DHT22;21818;51.078;12.108;2023-06-19T01:05:39;20.40;81.00
35700;DHT22;21818;51.078;12.108;2023-06-19T01:08:35;20.40;80.80
35700;DHT22;21818;51.078;12.108;2023-06-19T01:11:04;20.40;80.70
35700;DHT22;21818;51.078;12.108;2023-06-19T01:13:47;20.40;80.60
35700;DHT22;21818;51.078;12.108;2023-06-19T01:16:14;20.50;80.40
35700;DHT22;21818;51.078;12.108;2023-06-19T01:18:42;20.50;80.30
35700;DHT22;21818;51.078;12.108;2023-06-19T01:21:15;20.60;79.70
35700;DHT22;21818;51.078;12.108;2023-06-19T01:23:42;20.60;79.80
35700;DHT22;21818;51.078;12.108;2023-06-19T01:26:09;20.60;80.30
35700;DHT22;21818;51.078;12.108;2023-06-19T01:28:35;20.60;80.30
35700;DHT22;21818;51.078;12.108;2023-06-19T01:31:05;20.50;80.00
35700;DHT22;21818;51.078;12.108;2023-06-19T01:33:32;20.50;80.00
35700;DHT22;21818;51.078;12.108;2023-06-19T01:35:58;20.60;79.80
35700;DHT22;21818;51.078;12.108;2023-06-19T01:38:26;20.70;79.70
35700;DHT22;21818;51.078;12.108;2023-06-19T01:40:54;20.70;79.40
35700;DHT22;21818;51.078;12.108;2023-06-19T01:43:21;20.60;79.20
35700;DHT22;21818;51.078;12.108;2023-06-19T01:45:48;20.50;79.60
35700;DHT22;21818;51.078;12.108;2023-06-19T01:48:14;20.70;79.30
35700;DHT22;21818;51.078;12.108;2023-06-19T01:50:41;20.80;78.60
35700;DHT22;21818;51.078;12.108;2023-06-19T01:53:06;20.80;78.60
35700;DHT22;21818;51.078;12.108;2023-06-19T01:55:32;20.80;78.50
35700;DHT22;21818;51.078;12.108;2023-06-19T01:57:57;20.70;78.50
35700;DHT22;21818;51.078;12.108;2023-06-19T02:00:23;20.80;78.50
35700;DHT22;21818;51.078;12.108;2023-06-19T02:02:49;20.90;78.10
35700;DHT22;21818;51.078;12.108;2023-06-19T02:05:14;21.00;77.80
35700;DHT22;21818;51.078;12.108;2023-06-19T02:07:40;21.00;78.00
35700;DHT22;21818;51.078;12.108;2023-06-19T02:10:07;21.00;77.80
35700;DHT22;21818;51.078;12.108;2023-06-19T02:12:33;21.10;77.80
35700;DHT22;21818;51.078;12.108;2023-06-19T02:14:59;21.10;77.40
35700;DHT22;21818;51.078;12.108;2023-06-19T02:17:24;21.10;77.40
35700;DHT22;21818;51.078;12.108;2023-06-19T02:19:50;21.10;77.20
35700;DHT22;21818;51.078;12.108;2023-06-19T02:22:17;21.20;77.10
35700;DHT22;21818;51.078;12.108;2023-06-19T02:24:43;21.20;77.00
35700;DHT22;21818;51.078;12.108;2023-06-19T02:27:10;21.10;77.20
35700;DHT22;21818;51.078;12.108;2023-06-19T02:29:35;21.00;77.40
35700;DHT22;21818;51.078;12.108;2023-06-19T02:32:01;20.90;77.50
35700;DHT22;21818;51.078;12.108;2023-06-19T02:34:27;20.90;77.50
35700;DHT22;21818;51.078;12.108;2023-06-19T02:36:53;20.90;77.60
35700;DHT22;21818;51.078;12.108;2023-06-19T02:39:18;20.90;77.60
35700;DHT22;21818;51.078;12.108;2023-06-19T02:41:44;20.90;77.60
35700;DHT22;21818;51.078;12.108;2023-06-19T02:44:12;20.80;77.70
35700;DHT22;21818;51.078;12.108;2023-06-19T02:46:38;20.70;78.00
35700;DHT22;21818;51.078;12.108;2023-06-19T02:49:03;20.60;78.50
35700;DHT22;21818;51.078;12.108;2023-06-19T02:51:29;20.50;78.90
35700;DHT22;21818;51.078;12.108;2023-06-19T02:53:54;20.50;79.20
35700;DHT22;21818;51.078;12.108;2023-06-19T02:56:20;20.40;79.30
35700;DHT22;21818;51.078;12.108;2023-06-19T02:58:45;20.40;79.40
35700;DHT22;21818;51.078;12.108;2023-06-19T03:01:11;20.30;79.70
35700;DHT22;21818;51.078;12.108;2023-06-19T03:03:37;20.20;80.00
35700;DHT22;21818;51.078;12.108;2023-06-19T03:06:05;20.20;80.60
35700;DHT22;21818;51.078;12.108;2023-06-19T03:08:33;20.10;80.70
35700;DHT22;21818;51.078;12.108;2023-06-19T03:10:58;20.20;80.40
35700;DHT22;21818;51.078;12.108;2023-06-19T03:13:24;20.30;80.00
35700;DHT22;21818;51.078;12.108;2023-06-19T03:15:50;20.40;79.70
35700;DHT22;21818;51.078;12.108;2023-06-19T03:18:15;20.40;79.60
35700;DHT22;21818;51.078;12.108;2023-06-19T03:20:41;20.40;79.40
35700;DHT22;21818;51.078;12.108;2023-06-19T03:23:06;20.50;79.40
35700;DHT22;21818;51.078;12.108;2023-06-19T03:25:32;20.50;79.10
35700;DHT22;21818;51.078;12.108;2023-06-19T03:28:01;20.50;78.90
35700;DHT22;21818;51.078;12.108;2023-06-19T03:30:27;20.50;79.20
35700;DHT22;21818;51.078;12.108;2023-06-19T03:32:53;20.50;79.20
35700;DHT22;21818;51.078;12.108;2023-06-19T03:35:19;20.50;79.10
35700;DHT22;21818;51.078;12.108;2023-06-19T03:37:44;20.50;79.40
35700;DHT22;21818;51.078;12.108;2023-06-19T03:40:10;20.40;79.70
35700;DHT22;21818;51.078;12.108;2023-06-19T03:42:39;20.40;79.80
35700;DHT22;21818;51.078;12.108;2023-06-19T03:45:05;20.30;80.00
35700;DHT22;21818;51.078;12.108;2023-06-19T03:47:31;20.20;81.00
35700;DHT22;21818;51.078;12.108;2023-06-19T03:49:57;20.00;83.00
35700;DHT22;21818;51.078;12.108;2023-06-19T03:52:22;19.80;83.60
35700;DHT22;21818;51.078;12.108;2023-06-19T03:54:48;19.80;83.50
35700;DHT22;21818;51.078;12.108;2023-06-19T03:57:13;19.80;83.40
35700;DHT22;21818;51.078;12.108;2023-06-19T03:59:39;19.70;83.30
35700;DHT22;21818;51.078;12.108;2023-06-19T04:02:04;19.70;84.10
35700;DHT22;21818;51.078;12.108;2023-06-19T04:04:30;19.60;84.20
35700;DHT22;21818;51.078;12.108;2023-06-19T04:06:55;19.70;84.40
35700;DHT22;21818;51.078;12.108;2023-06-19T04:09:21;19.70;84.50
35700;DHT22;21818;51.078;12.108;2023-06-19T04:11:46;19.60;84.60
35700;DHT22;21818;51.078;12.108;2023-06-19T04:14:12;19.60;85.10
35700;DHT22;21818;51.078;12.108;2023-06-19T04:16:38;19.70;85.00
35700;DHT22;21818;51.078;12.108;2023-06-19T04:19:03;19.70;84.70
35700;DHT22;21818;51.078;12.108;2023-06-19T04:21:29;19.80;84.60
35700;DHT22;21818;51.078;12.108;2023-06-19T04:23:54;19.80;84.40
35700;DHT22;21818;51.078;12.108;2023-06-19T04:26:20;19.80;84.30
35700;DHT22;21818;51.078;12.108;2023-06-19T04:28:46;19.90;84.30
35700;DHT22;21818;51.078;12.108;2023-06-19T04:31:12;19.80;84.40
35700;DHT22;21818;51.078;12.108;2023-06-19T04:33:38;19.80;84.40
35700;DHT22;21818;51.078;12.108;2023-06-19T04:36:05;19.90;84.50
35700;DHT22;21818;51.078;12.108;2023-06-19T04:38:31;19.90;84.40
35700;DHT22;21818;51.078;12.108;2023-06-19T04:40:56;19.90;84.30
35700;DHT22;21818;51.078;12.108;2023-06-19T04:43:22;19.90;84.70
35700;DHT22;21818;51.078;12.108;2023-06-19T04:45:50;20.00;84.20
35700;DHT22;21818;51.078;12.108;2023-06-19T04:48:15;20.00;84.40
35700;DHT22;21818;51.078;12.108;2023-06-19T04:50:41;20.00;84.40
35700;DHT22;21818;51.078;12.108;2023-06-19T04:53:06;20.10;84.30
35700;DHT22;21818;51.078;12.108;2023-06-19T04:55:32;20.20;84.40
35700;DHT22;21818;51.078;12.108;2023-06-19T04:57:57;20.20;84.30
35700;DHT22;21818;51.078;12.108;2023-06-19T05:00:23;20.30;84.10
35700;DHT22;21818;51.078;12.108;2023-06-19T05:02:49;20.30;83.80
35700;DHT22;21818;51.078;12.108;2023-06-19T05:05:16;20.40;83.70
35700;DHT22;21818;51.078;12.108;2023-06-19T05:07:42;20.50;83.40
35700;DHT22;21818;51.078;12.108;2023-06-19T05:10:08;20.60;83.10
35700;DHT22;21818;51.078;12.108;2023-06-19T05:12:35;20.60;83.10
35700;DHT22;21818;51.078;12.108;2023-06-19T05:15:01;20.50;82.90
35700;DHT22;21818;51.078;12.108;2023-06-19T05:17:26;20.50;83.50
35700;DHT22;21818;51.078;12.108;2023-06-19T05:19:52;20.50;83.80
35700;DHT22;21818;51.078;12.108;2023-06-19T05:22:17;20.60;83.30
35700;DHT22;21818;51.078;12.108;2023-06-19T05:24:47;20.60;83.00
35700;DHT22;21818;51.078;12.108;2023-06-19T05:27:12;20.70;82.70
35700;DHT22;21818;51.078;12.108;2023-06-19T05:29:38;20.70;82.60
35700;DHT22;21818;51.078;12.108;2023-06-19T05:32:04;20.70;82.70
35700;DHT22;21818;51.078;12.108;2023-06-19T05:34:30;20.60;82.80
35700;DHT22;21818;51.078;12.108;2023-06-19T05:36:55;20.60;82.90
35700;DHT22;21818;51.078;12.108;2023-06-19T05:39:21;20.60;83.10
35700;DHT22;21818;51.078;12.108;2023-06-19T05:41:46;20.60;83.80
35700;DHT22;21818;51.078;12.108;2023-06-19T05:44:12;20.60;83.60
35700;DHT22;21818;51.078;12.108;2023-06-19T05:46:41;20.50;83.90
35700;DHT22;21818;51.078;12.108;2023-06-19T05:49:07;20.60;83.90
35700;DHT22;21818;51.078;12.108;2023-06-19T05:51:33;20.60;83.70
35700;DHT22;21818;51.078;12.108;2023-06-19T05:53:59;20.70;83.50
35700;DHT22;21818;51.078;12.108;2023-06-19T05:56:31;20.70;83.60
35700;DHT22;21818;51.078;12.108;2023-06-19T05:58:58;20.70;83.70
35700;DHT22;21818;51.078;12.108;2023-06-19T06:01:25;20.70;84.00
35700;DHT22;21818;51.078;12.108;2023-06-19T06:03:53;20.70;84.80
35700;DHT22;21818;51.078;12.108;2023-06-19T06:06:19;20.60;85.40
35700;DHT22;21818;51.078;12.108;2023-06-19T06:08:45;20.50;86.50
35700;DHT22;21818;51.078;12.108;2023-06-19T06:11:10;20.50;86.70
35700;DHT22;21818;51.078;12.108;2023-06-19T06:13:36;20.60;87.20
35700;DHT22;21818;51.078;12.108;2023-06-19T06:16:01;20.60;87.10
35700;DHT22;21818;51.078;12.108;2023-06-19T06:18:27;20.60;86.50
35700;DHT22;21818;51.078;12.108;2023-06-19T06:20:53;20.70;85.70
35700;DHT22;21818;51.078;12.108;2023-06-19T06:23:18;20.80;85.30
35700;DHT22;21818;51.078;12.108;2023-06-19T06:25:44;20.80;86.20
35700;DHT22;21818;51.078;12.108;2023-06-19T06:28:11;20.80;87.40
35700;DHT22;21818;51.078;12.108;2023-06-19T06:30:37;20.80;89.20
35700;DHT22;21818;51.078;12.108;2023-06-19T06:33:04;20.70;89.30
35700;DHT22;21818;51.078;12.108;2023-06-19T06:35:29;20.60;90.50
35700;DHT22;21818;51.078;12.108;2023-06-19T06:37:55;20.60;90.30
35700;DHT22;21818;51.078;12.108;2023-06-19T06:40:21;20.90;89.40
35700;DHT22;21818;51.078;12.108;2023-06-19T06:42:46;21.30;88.10
35700;DHT22;21818;51.078;12.108;2023-06-19T06:45:12;21.50;87.20
35700;DHT22;21818;51.078;12.108;2023-06-19T06:47:39;21.70;86.60
35700;DHT22;21818;51.078;12.108;2023-06-19T06:50:06;21.80;86.20
35700;DHT22;21818;51.078;12.108;2023-06-19T06:52:32;21.90;86.00
35700;DHT22;21818;51.078;12.108;2023-06-19T06:54:57;22.00;86.00
35700;DHT22;21818;51.078;12.108;2023-06-19T06:57:23;22.00;86.00
35700;DHT22;21818;51.078;12.108;2023-06-19T06:59:48;22.10;86.60
35700;DHT22;21818;51.078;12.108;2023-06-19T07:02:14;22.10;85.80
35700;DHT22;21818;51.078;12.108;2023-06-19T07:04:40;22.10;85.70
35700;DHT22;21818;51.078;12.108;2023-06-19T07:07:05;22.20;85.70
35700;DHT22;21818;51.078;12.108;2023-06-19T07:09:32;22.20;85.70
35700;DHT22;21818;51.078;12.108;2023-06-19T07:11:58;22.20;85.70
35700;DHT22;21818;51.078;12.108;2023-06-19T07:14:24;22.20;85.80
35700;DHT22;21818;51.078;12.108;2023-06-19T07:16:49;22.20;85.80
35700;DHT22;21818;51.078;12.108;2023-06-19T07:19:15;22.30;85.80
35700;DHT22;21818;51.078;12.108;2023-06-19T07:21:41;22.30;85.90
35700;DHT22;21818;51.078;12.108;2023-06-19T07:24:07;22.40;85.90
35700;DHT22;21818;51.078;12.108;2023-06-19T07:26:33;22.40;86.00
35700;DHT22;21818;51.078;12.108;2023-06-19T07:28:58;22.40;86.10
35700;DHT22;21818;51.078;12.108;2023-06-19T07:31:24;22.50;86.20
35700;DHT22;21818;51.078;12.108;2023-06-19T07:33:49;22.50;86.20
35700;DHT22;21818;51.078;12.108;2023-06-19T07:36:15;22.50;86.20
35700;DHT22;21818;51.078;12.108;2023-06-19T07:38:44;22.60;85.90
35700;DHT22;21818;51.078;12.108;2023-06-19T07:41:10;22.60;85.70
35700;DHT22;21818;51.078;12.108;2023-06-19T07:43:39;22.70;85.40
35700;DHT22;21818;51.078;12.108;2023-06-19T07:46:05;22.70;84.90
35700;DHT22;21818;51.078;12.108;2023-06-19T07:48:30;22.80;84.40
35700;DHT22;21818;51.078;12.108;2023-06-19T07:50:56;22.80;83.90
35700;DHT22;21818;51.078;12.108;2023-06-19T07:53:22;22.90;83.50
35700;DHT22;21818;51.078;12.108;2023-06-19T07:55:47;22.90;83.30
35700;DHT22;21818;51.078;12.108;2023-06-19T07:58:13;23.00;82.90
35700;DHT22;21818;51.078;12.108;2023-06-19T08:00:39;23.00;82.60
35700;DHT22;21818;51.078;12.108;2023-06-19T08:03:05;23.10;82.20
35700;DHT22;21818;51.078;12.108;2023-06-19T08:05:30;23.10;81.70
35700;DHT22;21818;51.078;12.108;2023-06-19T08:07:56;23.20;81.10
35700;DHT22;21818;51.078;12.108;2023-06-19T08:10:23;23.20;80.80
35700;DHT22;21818;51.078;12.108;2023-06-19T08:12:49;23.30;80.60
35700;DHT22;21818;51.078;12.108;2023-06-19T08:15:14;23.30;80.30
35700;DHT22;21818;51.078;12.108;2023-06-19T08:17:40;23.40;80.10
35700;DHT22;21818;51.078;12.108;2023-06-19T08:20:06;23.50;79.90
35700;DHT22;21818;51.078;12.108;2023-06-19T08:22:32;23.50;79.80
35700;DHT22;21818;51.078;12.108;2023-06-19T08:24:58;23.50;79.40
35700;DHT22;21818;51.078;12.108;2023-06-19T08:27:23;23.60;79.20
35700;DHT22;21818;51.078;12.108;2023-06-19T08:29:49;23.60;79.00
35700;DHT22;21818;51.078;12.108;2023-06-19T08:32:14;23.70;78.90
35700;DHT22;21818;51.078;12.108;2023-06-19T08:34:40;23.80;78.80
35700;DHT22;21818;51.078;12.108;2023-06-19T08:37:07;23.80;78.70
35700;DHT22;21818;51.078;12.108;2023-06-19T08:39:33;23.80;78.50
35700;DHT22;21818;51.078;12.108;2023-06-19T08:41:59;23.90;78.40
35700;DHT22;21818;51.078;12.108;2023-06-19T08:44:24;23.90;78.30
35700;DHT22;21818;51.078;12.108;2023-06-19T08:46:50;23.90;78.00
35700;DHT22;21818;51.078;12.108;2023-06-19T08:49:16;23.90;77.80
35700;DHT22;21818;51.078;12.108;2023-06-19T08:51:41;23.90;77.60
35700;DHT22;21818;51.078;12.108;2023-06-19T08:54:07;24.00;77.60
35700;DHT22;21818;51.078;12.108;2023-06-19T08:56:34;24.00;77.50
35700;DHT22;21818;51.078;12.108;2023-06-19T08:59:11;24.00;77.30
35700;DHT22;21818;51.078;12.108;2023-06-19T09:01:37;24.00;77.10
35700;DHT22;21818;51.078;12.108;2023-06-19T09:04:10;24.10;77.10
35700;DHT22;21818;51.078;12.108;2023-06-19T09:06:52;24.10;76.90
35700;DHT22;21818;51.078;12.108;2023-06-19T09:09:19;24.10;76.70
35700;DHT22;21818;51.078;12.108;2023-06-19T09:14:36;24.20;76.30
35700;DHT22;21818;51.078;12.108;2023-06-19T09:17:03;24.20;76.30
35700;DHT22;21818;51.078;12.108;2023-06-19T09:19:29;24.20;76.20
35700;DHT22;21818;51.078;12.108;2023-06-19T09:22:06;24.20;76.00
35700;DHT22;21818;51.078;12.108;2023-06-19T09:24:39;24.30;75.80
35700;DHT22;21818;51.078;12.108;2023-06-19T09:27:24;24.30;75.80
35700;DHT22;21818;51.078;12.108;2023-06-19T09:29:50;24.30;75.60
35700;DHT22;21818;51.078;12.108;2023-06-19T09:34:41;24.40;75.50
35700;DHT22;21818;51.078;12.108;2023-06-19T09:37:07;24.40;75.40
35700;DHT22;21818;51.078;12.108;2023-06-19T09:39:36;24.40;75.40
35700;DHT22;21818;51.078;12.108;2023-06-19T09:42:03;24.40;75.30
35700;DHT22;21818;51.078;12.108;2023-06-19T09:44:31;24.50;75.40
35700;DHT22;21818;51.078;12.108;2023-06-19T09:46:59;24.50;75.20
35700;DHT22;21818;51.078;12.108;2023-06-19T09:49:28;24.50;75.20
35700;DHT22;21818;51.078;12.108;2023-06-19T09:51:57;24.50;75.00
35700;DHT22;21818;51.078;12.108;2023-06-19T09:54:24;24.50;74.90
35700;DHT22;21818;51.078;12.108;2023-06-19T09:56:51;24.50;74.90
35700;DHT22;21818;51.078;12.108;2023-06-19T09:59:20;24.60;74.80
35700;DHT22;21818;51.078;12.108;2023-06-19T10:01:47;24.60;74.10
35700;DHT22;21818;51.078;12.108;2023-06-19T10:04:14;24.60;74.70
35700;DHT22;21818;51.078;12.108;2023-06-19T10:06:46;24.60;74.60
35700;DHT22;21818;51.078;12.108;2023-06-19T10:09:15;24.60;74.40
35700;DHT22;21818;51.078;12.108;2023-06-19T10:11:50;24.60;74.30
35700;DHT22;21818;51.078;12.108;2023-06-19T10:14:20;24.70;73.80
35700;DHT22;21818;51.078;12.108;2023-06-19T10:16:46;24.60;74.40
35700;DHT22;21818;51.078;12.108;2023-06-19T10:19:14;24.60;74.40
35700;DHT22;21818;51.078;12.108;2023-06-19T10:21:52;24.60;74.20
35700;DHT22;21818;51.078;12.108;2023-06-19T10:24:19;24.60;74.10
35700;DHT22;21818;51.078;12.108;2023-06-19T10:26:59;24.60;74.20
35700;DHT22;21818;51.078;12.108;2023-06-19T10:29:25;24.60;74.00
35700;DHT22;21818;51.078;12.108;2023-06-19T10:31:53;24.60;74.10
35700;DHT22;21818;51.078;12.108;2023-06-19T10:34:18;24.60;74.00
35700;DHT22;21818;51.078;12.108;2023-06-19T10:36:44;24.60;73.80
35700;DHT22;21818;51.078;12.108;2023-06-19T10:39:09;24.60;73.70
35700;DHT22;21818;51.078;12.108;2023-06-19T10:41:39;24.60;73.90
35700;DHT22;21818;51.078;12.108;2023-06-19T10:44:07;24.50;74.00
35700;DHT22;21818;51.078;12.108;2023-06-19T10:46:37;24.40;74.10
35700;DHT22;21818;51.078;12.108;2023-06-19T10:49:04;24.40;74.20
35700;DHT22;21818;51.078;12.108;2023-06-19T10:51:33;24.40;74.30
35700;DHT22;21818;51.078;12.108;2023-06-19T10:53:59;24.30;74.30
35700;DHT22;21818;51.078;12.108;2023-06-19T10:56:24;24.30;74.30
35700;DHT22;21818;51.078;12.108;2023-06-19T10:59:00;24.30;74.30
35700;DHT22;21818;51.078;12.108;2023-06-19T11:01:40;24.30;74.30
35700;DHT22;21818;51.078;12.108;2023-06-19T11:04:10;24.30;74.30
35700;DHT22;21818;51.078;12.108;2023-06-19T11:06:37;24.30;74.40
35700;DHT22;21818;51.078;12.108;2023-06-19T11:09:07;24.30;74.40
35700;DHT22;21818;51.078;12.108;2023-06-19T11:11:41;24.30;74.30
35700;DHT22;21818;51.078;12.108;2023-06-19T11:14:07;24.30;74.40
35700;DHT22;21818;51.078;12.108;2023-06-19T11:16:34;24.30;74.40
35700;DHT22;21818;51.078;12.108;2023-06-19T11:19:00;24.30;74.40
35700;DHT22;21818;51.078;12.108;2023-06-19T11:21:33;24.20;74.30
35700;DHT22;21818;51.078;12.108;2023-06-19T11:24:01;24.30;74.30
35700;DHT22;21818;51.078;12.108;2023-06-19T11:26:27;24.20;74.30
35700;DHT22;21818;51.078;12.108;2023-06-19T11:28:52;24.20;74.30
35700;DHT22;21818;51.078;12.108;2023-06-19T11:31:25;24.20;74.30
35700;DHT22;21818;51.078;12.108;2023-06-19T11:34:00;24.20;74.30
35700;DHT22;21818;51.078;12.108;2023-06-19T11:36:27;24.20;74.30
35700;DHT22;21818;51.078;12.108;2023-06-19T11:38:55;24.20;74.30
35700;DHT22;21818;51.078;12.108;2023-06-19T11:41:29;24.20;74.30
35700;DHT22;21818;51.078;12.108;2023-06-19T11:44:04;24.30;74.30
35700;DHT22;21818;51.078;12.108;2023-06-19T11:46:31;24.20;74.20
35700;DHT22;21818;51.078;12.108;2023-06-19T11:49:14;24.20;74.20
35700;DHT22;21818;51.078;12.108;2023-06-19T11:51:40;24.20;74.20
35700;DHT22;21818;51.078;12.108;2023-06-19T11:54:08;24.20;74.20
35700;DHT22;21818;51.078;12.108;2023-06-19T11:56:38;24.30;74.30
35700;DHT22;21818;51.078;12.108;2023-06-19T11:59:04;24.20;74.20
35700;DHT22;21818;51.078;12.108;2023-06-19T12:01:32;24.30;74.20
35700;DHT22;21818;51.078;12.108;2023-06-19T12:03:57;24.20;74.10
35700;DHT22;21818;51.078;12.108;2023-06-19T12:06:23;24.20;74.10
35700;DHT22;21818;51.078;12.108;2023-06-19T12:08:49;24.30;74.10
35700;DHT22;21818;51.078;12.108;2023-06-19T12:11:14;24.30;74.20
35700;DHT22;21818;51.078;12.108;2023-06-19T12:13:40;24.30;74.10
35700;DHT22;21818;51.078;12.108;2023-06-19T12:16:07;24.30;74.10
35700;DHT22;21818;51.078;12.108;2023-06-19T12:18:33;24.30;74.10
35700;DHT22;21818;51.078;12.108;2023-06-19T12:20:58;24.30;74.10
35700;DHT22;21818;51.078;12.108;2023-06-19T12:23:24;24.30;74.00
35700;DHT22;21818;51.078;12.108;2023-06-19T12:25:49;24.30;74.00
35700;DHT22;21818;51.078;12.108;2023-06-19T12:28:15;24.30;74.10
35700;DHT22;21818;51.078;12.108;2023-06-19T12:30:44;24.30;74.00
35700;DHT22;21818;51.078;12.108;2023-06-19T12:33:10;24.30;74.00
35700;DHT22;21818;51.078;12.108;2023-06-19T12:35:40;24.30;73.90
35700;DHT22;21818;51.078;12.108;2023-06-19T12:38:06;24.30;73.90
35700;DHT22;21818;51.078;12.108;2023-06-19T12:40:32;24.30;73.90
35700;DHT22;21818;51.078;12.108;2023-06-19T12:42:57;24.30;73.90
35700;DHT22;21818;51.078;12.108;2023-06-19T12:45:23;24.30;73.90
35700;DHT22;21818;51.078;12.108;2023-06-19T12:47:49;24.30;73.90
35700;DHT22;21818;51.078;12.108;2023-06-19T12:50:14;24.30;73.80
35700;DHT22;21818;51.078;12.108;2023-06-19T12:52:40;24.30;73.80
35700;DHT22;21818;51.078;12.108;2023-06-19T12:55:05;24.30;73.80
35700;DHT22;21818;51.078;12.108;2023-06-19T12:57:31;24.40;73.80
35700;DHT22;21818;51.078;12.108;2023-06-19T12:59:57;24.40;73.80
35700;DHT22;21818;51.078;12.108;2023-06-19T13:02:22;24.40;73.80
35700;DHT22;21818;51.078;12.108;2023-06-19T13:04:48;24.40;73.80
35700;DHT22;21818;51.078;12.108;2023-06-19T13:07:13;24.40;73.80
35700;DHT22;21818;51.078;12.108;2023-06-19T13:09:39;24.40;73.70
35700;DHT22;21818;51.078;12.108;2023-06-19T13:12:05;24.50;73.70
35700;DHT22;21818;51.078;12.108;2023-06-19T13:14:30;24.40;73.60
35700;DHT22;21818;51.078;12.108;2023-06-19T13:16:57;24.40;73.60
35700;DHT22;21818;51.078;12.108;2023-06-19T13:19:24;24.40;73.60
35700;DHT22;21818;51.078;12.108;2023-06-19T13:21:51;24.40;73.70
35700;DHT22;21818;51.078;12.108;2023-06-19T13:24:17;24.50;73.60
35700;DHT22;21818;51.078;12.108;2023-06-19T13:26:44;24.50;73.50
35700;DHT22;21818;51.078;12.108;2023-06-19T13:29:11;24.50;73.50
35700;DHT22;21818;51.078;12.108;2023-06-19T13:31:37;24.50;73.50
35700;DHT22;21818;51.078;12.108;2023-06-19T13:34:03;24.50;73.40
35700;DHT22;21818;51.078;12.108;2023-06-19T13:36:29;24.50;73.40
35700;DHT22;21818;51.078;12.108;2023-06-19T13:38:55;24.50;73.30
35700;DHT22;21818;51.078;12.108;2023-06-19T13:41:21;24.60;73.40
35700;DHT22;21818;51.078;12.108;2023-06-19T13:43:49;24.50;73.30
35700;DHT22;21818;51.078;12.108;2023-06-19T13:46:15;24.60;73.30
35700;DHT22;21818;51.078;12.108;2023-06-19T13:48:40;24.60;73.30
35700;DHT22;21818;51.078;12.108;2023-06-19T13:51:06;24.60;73.20
35700;DHT22;21818;51.078;12.108;2023-06-19T13:53:31;24.60;73.20
35700;DHT22;21818;51.078;12.108;2023-06-19T13:55:57;24.60;73.20
35700;DHT22;21818;51.078;12.108;2023-06-19T13:58:23;24.60;73.20
35700;DHT22;21818;51.078;12.108;2023-06-19T14:00:49;24.60;73.10
35700;DHT22;21818;51.078;12.108;2023-06-19T14:03:14;24.60;73.10
35700;DHT22;21818;51.078;12.108;2023-06-19T14:05:40;24.60;73.10
35700;DHT22;21818;51.078;12.108;2023-06-19T14:08:05;24.60;73.00
35700;DHT22;21818;51.078;12.108;2023-06-19T14:10:31;24.60;73.00
35700;DHT22;21818;51.078;12.108;2023-06-19T14:12:56;24.60;73.00
35700;DHT22;21818;51.078;12.108;2023-06-19T14:15:22;24.70;73.00
35700;DHT22;21818;51.078;12.108;2023-06-19T14:17:47;24.70;73.00
35700;DHT22;21818;51.078;12.108;2023-06-19T14:20:13;24.70;72.90
35700;DHT22;21818;51.078;12.108;2023-06-19T14:22:39;24.70;72.90
35700;DHT22;21818;51.078;12.108;2023-06-19T14:25:04;24.70;72.90
35700;DHT22;21818;51.078;12.108;2023-06-19T14:27:30;24.70;72.80
35700;DHT22;21818;51.078;12.108;2023-06-19T14:29:56;24.70;72.80
35700;DHT22;21818;51.078;12.108;2023-06-19T14:32:22;24.80;72.80
35700;DHT22;21818;51.078;12.108;2023-06-19T14:34:49;24.70;72.70
35700;DHT22;21818;51.078;12.108;2023-06-19T14:37:14;24.80;72.80
35700;DHT22;21818;51.078;12.108;2023-06-19T14:39:40;24.80;72.70
35700;DHT22;21818;51.078;12.108;2023-06-19T14:42:06;24.80;72.70
35700;DHT22;21818;51.078;12.108;2023-06-19T14:44:32;24.80;72.70
35700;DHT22;21818;51.078;12.108;2023-06-19T14:47:00;24.80;72.60
35700;DHT22;21818;51.078;12.108;2023-06-19T14:49:25;24.80;72.60
35700;DHT22;21818;51.078;12.108;2023-06-19T14:51:51;24.80;72.60
35700;DHT22;21818;51.078;12.108;2023-06-19T14:54:17;24.80;72.50
35700;DHT22;21818;51.078;12.108;2023-06-19T14:56:46;24.90;72.60
35700;DHT22;21818;51.078;12.108;2023-06-19T14:59:15;24.90;72.50
35700;DHT22;21818;51.078;12.108;2023-06-19T15:01:41;24.90;72.50
35700;DHT22;21818;51.078;12.108;2023-06-19T15:04:06;24.90;72.50
35700;DHT22;21818;51.078;12.108;2023-06-19T15:06:32;24.90;72.40
35700;DHT22;21818;51.078;12.108;2023-06-19T15:08:58;24.90;72.40
35700;DHT22;21818;51.078;12.108;2023-06-19T15:11:24;24.90;72.40
35700;DHT22;21818;51.078;12.108;2023-06-19T15:13:50;24.90;72.30
35700;DHT22;21818;51.078;12.108;2023-06-19T15:16:16;25.00;72.40
35700;DHT22;21818;51.078;12.108;2023-06-19T15:18:43;24.90;72.30